createdAt,value
2018-11-21T00:00:17.482Z,71.90
2018-11-21T00:02:47.334Z,73.30
2018-11-21T00:05:17.064Z,73.60
2018-11-21T00:07:46.680Z,74.00
2018-11-21T00:10:16.316Z,74.70
2018-11-21T00:12:49.186Z,73.60
2018-11-21T00:15:18.375Z,73.70
2018-11-21T00:17:47.805Z,73.60
2018-11-21T00:20:17.183Z,73.90
2018-11-21T00:22:46.438Z,73.90
2018-11-21T00:25:15.485Z,73.80
2018-11-21T00:27:45.077Z,73.80
2018-11-21T00:30:15.397Z,74.50
2018-11-21T00:32:44.819Z,75.10
2018-11-21T00:35:14.470Z,76.10
2018-11-21T00:37:43.611Z,75.50
2018-11-21T00:40:14.269Z,76.00
2018-11-21T00:42:46.945Z,76.50
2018-11-21T00:45:12.607Z,76.40
2018-11-21T00:50:11.264Z,75.20
2018-11-21T00:52:40.148Z,76.70
2018-11-21T00:55:09.309Z,77.50
2018-11-21T00:57:38.135Z,77.30
2018-11-21T01:00:10.475Z,77.50
2018-11-21T01:02:39.546Z,77.80
2018-11-21T01:05:08.308Z,77.60
2018-11-21T01:07:39.546Z,77.70
2018-11-21T01:10:08.683Z,77.50
2018-11-21T01:12:37.603Z,77.00
2018-11-21T01:15:07.001Z,76.70
2018-11-21T01:17:36.130Z,76.80
2018-11-21T01:20:06.868Z,78.30
2018-11-21T01:22:35.644Z,77.80
2018-11-21T01:25:04.852Z,77.70
2018-11-21T01:27:34.112Z,77.40
2018-11-21T01:30:04.718Z,76.90
2018-11-21T01:32:33.944Z,76.00
2018-11-21T01:35:03.460Z,75.80
2018-11-21T01:37:32.462Z,75.10
2018-11-21T01:40:01.936Z,75.20
2018-11-21T01:42:31.031Z,76.30
2018-11-21T01:45:00.530Z,76.00
2018-11-21T01:47:30.019Z,76.60
2018-11-21T01:49:59.462Z,76.60
2018-11-21T01:52:28.796Z,75.60
2018-11-21T01:54:58.050Z,76.00
2018-11-21T01:57:26.988Z,76.70
2018-11-21T01:59:56.225Z,75.70
2018-11-21T02:02:25.391Z,75.50
2018-11-21T02:04:54.796Z,76.40
2018-11-21T02:07:24.092Z,77.80
2018-11-21T02:09:53.234Z,78.60
2018-11-21T02:12:22.347Z,79.30
2018-11-21T02:14:51.441Z,78.90
2018-11-21T02:17:20.634Z,78.60
2018-11-21T02:19:49.499Z,78.60
2018-11-21T02:22:18.430Z,79.00
2018-11-21T02:24:47.943Z,78.20
2018-11-21T02:27:17.561Z,77.40
2018-11-21T02:29:46.626Z,77.00
2018-11-21T02:32:15.618Z,77.20
2018-11-21T02:34:44.868Z,77.20
2018-11-21T02:37:13.956Z,77.50
2018-11-21T02:39:42.676Z,76.50
2018-11-21T02:42:12.489Z,75.00
2018-11-21T02:44:41.501Z,75.80
2018-11-21T02:47:10.269Z,76.90
2018-11-21T02:49:39.469Z,77.10
2018-11-21T02:52:08.328Z,76.80
2018-11-21T02:54:37.983Z,76.40
2018-11-21T02:57:24.336Z,76.70
2018-11-21T03:00:11.798Z,76.30
2018-11-21T03:02:40.825Z,77.20
2018-11-21T03:05:10.667Z,76.90
2018-11-21T03:07:49.412Z,77.20
2018-11-21T03:10:19.337Z,77.50
2018-11-21T03:12:48.925Z,77.00
2018-11-21T03:15:17.894Z,77.60
2018-11-21T03:17:47.068Z,78.30
2018-11-21T03:20:16.498Z,78.80
2018-11-21T03:22:45.794Z,79.60
2018-11-21T03:25:15.233Z,79.50
2018-11-21T03:27:44.570Z,79.70
2018-11-21T03:30:14.446Z,79.50
2018-11-21T03:32:43.719Z,80.00
2018-11-21T03:35:12.860Z,80.00
2018-11-21T03:37:42.261Z,79.50
2018-11-21T03:40:12.562Z,80.10
2018-11-21T03:42:41.961Z,80.10
2018-11-21T03:45:12.366Z,78.90
2018-11-21T03:47:41.669Z,78.10
2018-11-21T03:50:12.238Z,78.80
2018-11-21T03:52:41.370Z,78.20
2018-11-21T03:55:10.507Z,77.30
2018-11-21T03:57:39.778Z,76.90
2018-11-21T04:00:10.812Z,77.50
2018-11-21T04:02:40.644Z,78.60
2018-11-21T04:05:10.179Z,78.10
2018-11-21T04:07:39.812Z,78.20
2018-11-21T04:10:13.883Z,77.50
2018-11-21T04:12:43.314Z,78.00
2018-11-21T04:15:13.203Z,78.00
2018-11-21T04:17:42.723Z,77.30
2018-11-21T04:20:12.264Z,78.00
2018-11-21T04:22:41.767Z,78.60
2018-11-21T04:25:12.314Z,78.30
2018-11-21T04:27:41.655Z,79.00
2018-11-21T04:30:12.420Z,79.00
2018-11-21T04:32:41.249Z,79.40
2018-11-21T04:35:11.332Z,80.70
2018-11-21T04:37:44.081Z,79.90
2018-11-21T04:40:13.958Z,79.80
2018-11-21T04:42:43.451Z,80.30
2018-11-21T04:45:12.869Z,80.80
2018-11-21T04:47:42.343Z,79.60
2018-11-21T04:50:11.700Z,80.10
2018-11-21T04:52:41.007Z,80.00
2018-11-21T04:55:10.522Z,78.70
2018-11-21T04:57:39.669Z,79.10
2018-11-21T05:00:10.685Z,78.20
2018-11-21T05:02:39.735Z,78.50
2018-11-21T05:05:10.607Z,78.80
2018-11-21T05:07:40.397Z,79.00
2018-11-21T05:10:10.136Z,81.60
2018-11-21T05:12:39.721Z,80.40
2018-11-21T05:15:09.006Z,80.80
2018-11-21T05:17:38.082Z,79.70
2018-11-21T05:20:07.935Z,81.30
2018-11-21T05:22:38.143Z,83.40
2018-11-21T05:25:09.248Z,85.90
2018-11-21T05:27:38.898Z,85.20
2018-11-21T05:30:13.161Z,80.10
2018-11-21T05:32:43.212Z,78.90
2018-11-21T05:35:12.326Z,82.50
2018-11-21T05:37:41.801Z,81.30
2018-11-21T05:40:11.284Z,81.90
2018-11-21T05:42:40.804Z,79.90
2018-11-21T05:45:10.374Z,79.10
2018-11-21T05:47:39.961Z,78.60
2018-11-21T05:50:12.052Z,78.80
2018-11-21T05:52:41.980Z,80.60
2018-11-21T05:55:12.045Z,81.40
2018-11-21T06:00:12.775Z,80.70
2018-11-21T06:02:42.063Z,76.40
2018-11-21T06:05:12.030Z,78.50
2018-11-21T06:10:14.853Z,77.10
2018-11-21T06:12:44.486Z,76.70
2018-11-21T06:15:14.570Z,78.00
2018-11-21T06:17:48.127Z,78.30
2018-11-21T06:20:14.317Z,79.00
2018-11-21T06:22:44.148Z,79.90
2018-11-21T06:25:14.362Z,76.90
2018-11-21T06:27:43.411Z,74.60
2018-11-21T06:30:14.189Z,75.10
2018-11-21T06:32:44.428Z,78.50
2018-11-21T06:35:13.870Z,75.50
2018-11-21T06:37:43.744Z,76.90
2018-11-21T06:40:14.436Z,77.30
2018-11-21T06:42:57.265Z,77.10
2018-11-21T06:45:27.926Z,80.60
2018-11-21T06:47:58.440Z,77.80
2018-11-21T06:50:27.977Z,78.50
2018-11-21T06:52:58.999Z,78.90
2018-11-21T06:55:28.838Z,79.70
2018-11-21T06:57:59.030Z,77.50
2018-11-21T07:00:28.858Z,78.60
2018-11-21T07:02:58.376Z,76.70
2018-11-21T07:05:28.160Z,76.30
2018-11-21T07:08:00.700Z,73.80
2018-11-21T07:10:30.469Z,74.50
2018-11-21T07:13:00.417Z,78.00
2018-11-21T07:15:29.803Z,74.80
2018-11-21T07:17:59.152Z,77.10
2018-11-21T07:20:28.716Z,77.30
2018-11-21T07:22:58.613Z,73.90
2018-11-21T07:25:28.615Z,72.60
2018-11-21T07:27:57.711Z,72.00
2018-11-21T07:30:27.943Z,72.20
2018-11-21T07:32:58.383Z,73.80
2018-11-21T07:35:27.862Z,75.80
2018-11-21T07:37:57.291Z,72.50
2018-11-21T07:40:26.910Z,73.80
2018-11-21T07:42:56.678Z,73.30
2018-11-21T07:45:26.230Z,75.50
2018-11-21T07:47:56.480Z,73.50
2018-11-21T07:50:25.144Z,73.40
2018-11-21T07:52:55.060Z,74.10
2018-11-21T07:55:24.923Z,75.90
2018-11-21T07:57:56.299Z,71.70
2018-11-21T08:00:57.026Z,71.90
2018-11-21T08:03:28.286Z,72.10
2018-11-21T08:06:17.702Z,71.70
2018-11-21T08:09:23.857Z,72.10
2018-11-21T08:12:10.701Z,73.30
2018-11-21T08:14:57.687Z,72.10
2018-11-21T08:18:03.792Z,70.10
2018-11-21T08:20:55.609Z,70.20
2018-11-21T08:23:55.699Z,70.70
2018-11-21T08:26:41.314Z,68.90
2018-11-21T08:29:10.729Z,71.50
2018-11-21T08:31:40.685Z,68.30
2018-11-21T08:34:13.272Z,68.30
2018-11-21T08:36:42.176Z,68.50
2018-11-21T08:39:11.056Z,69.10
2018-11-21T08:41:42.014Z,70.20
2018-11-21T08:44:10.736Z,69.50
2018-11-21T08:46:39.456Z,70.80
2018-11-21T08:49:08.386Z,71.60
2018-11-21T08:51:37.205Z,67.40
2018-11-21T08:54:06.771Z,66.80
2018-11-21T08:56:36.338Z,67.80
2018-11-21T08:59:09.467Z,69.30
2018-11-21T09:01:39.109Z,68.10
2018-11-21T09:04:09.102Z,65.20
2018-11-21T09:06:38.833Z,69.10
2018-11-21T09:09:10.867Z,66.00
2018-11-21T09:11:41.642Z,67.10
2018-11-21T09:14:11.748Z,64.50
2018-11-21T09:16:41.180Z,64.90
2018-11-21T09:19:10.973Z,66.10
2018-11-21T09:21:40.840Z,65.80
2018-11-21T09:24:10.216Z,65.50
2018-11-21T09:26:40.649Z,66.90
2018-11-21T09:29:10.330Z,68.40
2018-11-21T09:31:39.527Z,67.00
2018-11-21T09:34:09.295Z,67.10
2018-11-21T09:36:38.585Z,67.70
2018-11-21T09:39:10.873Z,67.80
2018-11-21T09:41:40.560Z,66.60
2018-11-21T09:44:10.224Z,67.80
2018-11-21T09:46:39.414Z,67.30
2018-11-21T09:49:09.750Z,72.40
2018-11-21T09:51:39.358Z,68.40
2018-11-21T09:54:09.279Z,67.20
2018-11-21T09:56:39.285Z,66.40
2018-11-21T09:59:12.387Z,66.90
2018-11-21T10:02:35.883Z,67.50
2018-11-21T10:05:05.004Z,67.40
2018-11-21T10:07:39.742Z,68.80
2018-11-21T10:10:08.821Z,69.70
2018-11-21T10:12:39.076Z,66.60
2018-11-21T10:15:09.903Z,64.00
2018-11-21T10:17:39.233Z,66.70
2018-11-21T10:20:09.416Z,65.40
2018-11-21T10:22:38.820Z,64.60
2018-11-21T10:25:08.942Z,65.10
2018-11-21T10:27:39.094Z,66.30
2018-11-21T10:30:08.469Z,67.80
2018-11-21T10:32:38.016Z,65.30
2018-11-21T10:35:07.408Z,66.20
2018-11-21T10:37:36.782Z,63.70
2018-11-21T10:40:07.436Z,64.90
2018-11-21T10:42:37.759Z,65.00
2018-11-21T10:45:09.205Z,64.90
2018-11-21T10:47:39.710Z,66.90
2018-11-21T10:50:09.704Z,67.00
2018-11-21T10:52:39.231Z,64.30
2018-11-21T10:55:08.421Z,63.90
2018-11-21T10:57:37.610Z,63.30
2018-11-21T11:00:13.678Z,63.90
2018-11-21T11:02:57.687Z,64.80
2018-11-21T11:05:48.584Z,64.30
2018-11-21T11:08:50.546Z,65.00
2018-11-21T11:11:37.750Z,64.60
2018-11-21T11:14:38.340Z,64.40
2018-11-21T11:17:25.769Z,64.20
2018-11-21T11:20:13.719Z,63.50
2018-11-21T11:23:00.971Z,63.70
2018-11-21T11:25:56.411Z,63.70
2018-11-21T11:28:45.813Z,63.80
2018-11-21T11:31:49.802Z,65.40
2018-11-21T11:34:42.852Z,63.70
2018-11-21T11:37:29.979Z,63.30
2018-11-21T11:40:30.786Z,63.30
2018-11-21T11:43:17.724Z,63.90
2018-11-21T11:46:06.461Z,62.20
2018-11-21T11:48:53.004Z,62.40
2018-11-21T11:51:59.470Z,63.00
2018-11-21T11:55:03.968Z,63.60
2018-11-21T11:57:53.763Z,63.30
2018-11-21T12:00:44.744Z,63.80
2018-11-21T12:03:42.905Z,64.90
2018-11-21T12:06:24.257Z,64.70
2018-11-21T12:09:24.944Z,65.10
2018-11-21T12:12:13.083Z,65.10
2018-11-21T12:15:05.062Z,64.20
2018-11-21T12:17:52.337Z,63.60
2018-11-21T12:20:39.659Z,63.90
2018-11-21T12:23:43.018Z,64.60
2018-11-21T12:26:30.734Z,63.80
2018-11-21T12:29:28.670Z,63.60
2018-11-21T12:32:12.359Z,63.90
2018-11-21T12:35:19.207Z,63.70
2018-11-21T12:38:06.243Z,64.50
2018-11-21T12:41:01.356Z,65.10
2018-11-21T12:43:48.481Z,64.60
2018-11-21T12:46:38.362Z,65.30
2018-11-21T12:49:39.190Z,64.30
2018-11-21T12:52:27.719Z,63.40
2018-11-21T12:55:28.351Z,63.70
2018-11-21T12:58:10.849Z,62.70
2018-11-21T13:00:58.131Z,63.30
2018-11-21T13:03:47.325Z,64.30
2018-11-21T13:06:42.215Z,64.60
2018-11-21T13:09:29.700Z,64.30
2018-11-21T13:12:16.899Z,63.90
2018-11-21T13:15:08.765Z,63.80
2018-11-21T13:17:57.932Z,63.60
2018-11-21T13:21:04.411Z,63.60
2018-11-21T13:23:53.366Z,64.30
2018-11-21T13:27:00.182Z,64.90
2018-11-21T13:29:51.877Z,64.50
2018-11-21T13:32:43.126Z,64.10
2018-11-21T13:35:19.139Z,64.10
2018-11-21T13:38:06.525Z,64.60
2018-11-21T13:41:01.876Z,64.40
2018-11-21T13:44:05.868Z,65.10
2018-11-21T13:46:51.871Z,64.70
2018-11-21T13:49:40.832Z,65.00
2018-11-21T13:52:38.178Z,64.90
2018-11-21T13:55:08.540Z,65.00
2018-11-21T13:57:37.778Z,65.30
2018-11-21T14:00:10.781Z,65.20
2018-11-21T14:02:41.047Z,65.10
2018-11-21T14:05:13.117Z,65.10
2018-11-21T14:07:43.094Z,64.40
2018-11-21T14:10:12.969Z,64.90
2018-11-21T14:12:42.004Z,65.60
2018-11-21T14:15:11.409Z,65.80
2018-11-21T14:17:41.507Z,65.70
2018-11-21T14:20:12.335Z,66.50
2018-11-21T14:22:42.542Z,67.20
2018-11-21T14:25:12.642Z,66.10
2018-11-21T14:30:16.409Z,64.50
2018-11-21T14:32:45.604Z,65.10
2018-11-21T14:35:16.210Z,65.10
2018-11-21T14:37:45.927Z,64.60
2018-11-21T14:40:17.507Z,65.30
2018-11-21T14:42:48.055Z,64.80
2018-11-21T14:45:18.457Z,65.40
2018-11-21T14:47:51.730Z,63.90
2018-11-21T14:50:39.083Z,64.40
2018-11-21T14:53:04.184Z,64.90
2018-11-21T14:55:34.154Z,65.30
2018-11-21T14:58:04.166Z,65.10
2018-11-21T15:00:33.184Z,65.10
2018-11-21T15:03:05.108Z,65.00
2018-11-21T15:05:34.864Z,65.20
2018-11-21T15:08:05.157Z,65.30
2018-11-21T15:10:35.057Z,65.00
2018-11-21T15:13:05.669Z,65.50
2018-11-21T15:15:35.705Z,66.00
2018-11-21T15:18:05.487Z,65.70
2018-11-21T15:20:34.653Z,65.00
2018-11-21T15:23:04.065Z,65.30
2018-11-21T15:25:33.919Z,66.10
2018-11-21T15:28:03.485Z,66.40
2018-11-21T15:30:33.272Z,65.20
2018-11-21T15:33:02.512Z,65.30
2018-11-21T15:35:32.126Z,65.00
2018-11-21T15:38:01.422Z,65.30
2018-11-21T15:40:31.052Z,65.30
2018-11-21T15:43:00.400Z,65.20
2018-11-21T15:45:29.634Z,65.50
2018-11-21T15:48:01.628Z,65.80
2018-11-21T15:50:31.743Z,65.80
2018-11-21T15:53:02.106Z,65.60
2018-11-21T15:55:31.973Z,65.90
2018-11-21T15:58:02.366Z,65.40
2018-11-21T16:00:35.539Z,65.00
2018-11-21T16:03:09.045Z,66.00
2018-11-21T16:05:39.414Z,65.40
2018-11-21T16:08:08.864Z,66.00
2018-11-21T16:10:40.224Z,66.10
2018-11-21T16:13:12.239Z,66.10
2018-11-21T16:15:47.283Z,66.80
2018-11-21T16:18:17.571Z,66.10
2018-11-21T16:20:52.613Z,66.70
2018-11-21T16:23:22.914Z,66.10
2018-11-21T16:25:57.472Z,67.20
2018-11-21T16:28:28.166Z,65.90
2018-11-21T16:31:00.186Z,67.70
2018-11-21T16:33:30.208Z,66.90
2018-11-21T16:35:59.771Z,65.90
2018-11-21T16:38:30.873Z,66.20
2018-11-21T16:40:59.983Z,66.70
2018-11-21T16:43:29.571Z,65.60
2018-11-21T16:45:58.855Z,66.40
2018-11-21T16:48:28.435Z,66.10
2018-11-21T16:50:58.071Z,67.10
2018-11-21T16:53:27.829Z,67.10
2018-11-21T16:55:57.944Z,67.30
2018-11-21T16:58:30.135Z,67.50
2018-11-21T17:00:59.968Z,67.20
2018-11-21T17:03:36.221Z,67.40
2018-11-21T17:06:06.971Z,67.00
2018-11-21T17:08:37.325Z,66.60
2018-11-21T17:11:08.196Z,67.20
2018-11-21T17:13:37.160Z,67.70
2018-11-21T17:16:08.961Z,66.60
2018-11-21T17:18:43.318Z,67.70
2018-11-21T17:21:15.542Z,67.20
2018-11-21T17:23:47.944Z,67.90
2018-11-21T17:26:17.607Z,66.80
2018-11-21T17:28:46.777Z,66.80
2018-11-21T17:31:22.939Z,67.70
2018-11-21T17:33:52.719Z,68.20
2018-11-21T17:36:22.001Z,67.50
2018-11-21T17:38:51.197Z,67.70
2018-11-21T17:41:19.107Z,67.80
2018-11-21T17:43:46.826Z,67.50
2018-11-21T17:46:14.671Z,67.40
2018-11-21T17:48:43.350Z,67.20
2018-11-21T17:51:11.309Z,67.90
2018-11-21T17:53:39.146Z,66.80
2018-11-21T17:56:06.966Z,66.30
2018-11-21T17:58:36.251Z,66.10
2018-11-21T18:01:04.300Z,66.60
2018-11-21T18:03:32.217Z,66.50
2018-11-21T18:06:00.277Z,66.60
2018-11-21T18:08:28.253Z,67.00
2018-11-21T18:10:56.297Z,67.20
2018-11-21T18:13:24.422Z,66.60
2018-11-21T18:15:52.343Z,67.80
2018-11-21T18:18:20.039Z,67.10
2018-11-21T18:20:47.784Z,66.20
2018-11-21T18:23:15.879Z,67.30
2018-11-21T18:25:45.358Z,65.20
2018-11-21T18:28:13.398Z,65.60
2018-11-21T18:30:42.299Z,65.90
2018-11-21T18:33:10.650Z,66.70
2018-11-21T18:35:39.022Z,65.80
2018-11-21T18:38:07.022Z,65.70
2018-11-21T18:40:34.761Z,65.40
2018-11-21T18:43:02.608Z,65.00
2018-11-21T18:45:34.289Z,65.00
2018-11-21T18:48:03.319Z,65.50
2018-11-21T18:50:31.271Z,64.90
2018-11-21T18:53:01.054Z,64.70
2018-11-21T18:55:53.665Z,65.00
2018-11-21T18:58:51.619Z,65.20
2018-11-21T19:01:19.923Z,66.00
2018-11-21T19:03:48.080Z,65.20
2018-11-21T19:06:16.650Z,65.00
2018-11-21T19:08:44.876Z,65.10
2018-11-21T19:11:12.773Z,64.50
2018-11-21T19:13:40.734Z,64.90
2018-11-21T19:16:09.351Z,64.70
2018-11-21T19:18:37.120Z,65.10
2018-11-21T19:21:05.495Z,64.80
2018-11-21T19:23:33.453Z,65.00
2018-11-21T19:26:01.176Z,65.20
2018-11-21T19:28:29.395Z,65.00
2018-11-21T19:30:57.180Z,65.00
2018-11-21T19:33:25.241Z,65.30
2018-11-21T19:35:53.478Z,65.10
2018-11-21T19:38:21.798Z,66.30
2018-11-21T19:40:49.879Z,64.40
2018-11-21T19:43:18.034Z,64.20
2018-11-21T19:45:46.338Z,65.10
2018-11-21T19:48:14.595Z,63.70
2018-11-21T19:50:42.640Z,63.80
2018-11-21T19:53:11.480Z,65.60
2018-11-21T19:55:39.453Z,65.30
2018-11-21T19:58:07.717Z,64.70
2018-11-21T20:00:36.419Z,65.00
2018-11-21T20:03:05.577Z,65.10
2018-11-21T20:05:33.988Z,63.80
2018-11-21T20:08:02.819Z,63.80
2018-11-21T20:10:31.293Z,63.80
2018-11-21T20:13:02.667Z,64.60
2018-11-21T20:15:30.751Z,63.30
2018-11-21T20:18:00.365Z,63.80
2018-11-21T20:20:28.711Z,64.10
2018-11-21T20:22:56.922Z,63.20
2018-11-21T20:25:26.053Z,63.60
2018-11-21T20:27:54.227Z,63.30
2018-11-21T20:30:27.120Z,63.80
2018-11-21T20:33:07.914Z,63.50
2018-11-21T20:35:36.827Z,63.60
2018-11-21T20:38:06.650Z,63.30
2018-11-21T20:40:35.620Z,62.90
2018-11-21T20:43:03.997Z,63.10
2018-11-21T20:45:33.311Z,63.00
2018-11-21T20:48:01.978Z,63.30
2018-11-21T20:50:30.614Z,64.40
2018-11-21T20:52:58.807Z,64.70
2018-11-21T20:55:28.796Z,64.60
2018-11-21T20:57:56.652Z,64.50
2018-11-21T21:00:26.334Z,64.80
2018-11-21T21:02:54.118Z,63.50
2018-11-21T21:05:23.324Z,64.20
2018-11-21T21:07:51.831Z,62.70
2018-11-21T21:10:21.289Z,63.20
2018-11-21T21:12:49.293Z,63.60
2018-11-21T21:15:16.992Z,62.80
2018-11-21T21:17:46.371Z,62.30
2018-11-21T21:20:15.464Z,62.70
2018-11-21T21:22:43.933Z,63.30
2018-11-21T21:25:19.195Z,63.20
2018-11-21T21:27:47.180Z,63.30
2018-11-21T21:30:16.650Z,63.50
2018-11-21T21:32:45.151Z,63.60
2018-11-21T21:35:13.963Z,64.20
2018-11-21T21:37:41.758Z,63.90
2018-11-21T21:40:12.415Z,63.90
2018-11-21T21:42:40.654Z,64.20
2018-11-21T21:45:10.827Z,65.20
2018-11-21T21:47:41.831Z,64.90
2018-11-21T21:50:10.595Z,64.60
2018-11-21T21:52:38.394Z,65.00
2018-11-21T21:55:07.930Z,65.00
2018-11-21T21:57:35.690Z,65.00
2018-11-21T22:00:08.290Z,65.60
2018-11-21T22:02:36.126Z,64.90
2018-11-21T22:05:05.254Z,64.70
2018-11-21T22:07:32.985Z,64.70
2018-11-21T22:10:01.323Z,64.70
2018-11-21T22:12:29.006Z,64.60
2018-11-21T22:14:57.002Z,64.60
2018-11-21T22:17:24.658Z,64.90
2018-11-21T22:19:52.983Z,65.00
2018-11-21T22:22:20.671Z,64.70
2018-11-21T22:24:48.672Z,65.30
2018-11-21T22:27:16.606Z,65.10
2018-11-21T22:29:44.535Z,65.50
2018-11-21T22:32:12.239Z,64.90
2018-11-21T22:34:40.312Z,64.90
2018-11-21T22:37:07.994Z,64.30
2018-11-21T22:39:35.717Z,64.70
2018-11-21T22:42:03.487Z,64.70
2018-11-21T22:44:31.423Z,65.50
2018-11-21T22:46:59.494Z,65.80
2018-11-21T22:49:27.458Z,65.80
2018-11-21T22:51:55.529Z,64.90
2018-11-21T22:54:23.689Z,64.60
2018-11-21T22:56:51.384Z,64.60
2018-11-21T22:59:19.378Z,65.50
2018-11-21T23:01:47.379Z,65.70
2018-11-21T23:04:15.161Z,65.00
2018-11-21T23:06:43.169Z,65.80
2018-11-21T23:09:12.297Z,65.80
2018-11-21T23:11:40.309Z,65.50
2018-11-21T23:14:08.039Z,65.30
2018-11-21T23:16:36.031Z,65.80
2018-11-21T23:19:04.138Z,65.30
2018-11-21T23:21:31.861Z,65.50
2018-11-21T23:24:00.111Z,65.20
2018-11-21T23:26:28.159Z,65.50
2018-11-21T23:28:56.216Z,64.60
2018-11-21T23:31:24.182Z,64.40
2018-11-21T23:33:53.140Z,64.70
2018-11-21T23:36:21.892Z,65.60
2018-11-21T23:38:50.153Z,65.60
2018-11-21T23:41:18.226Z,66.50
2018-11-21T23:43:45.928Z,66.10
2018-11-21T23:46:13.634Z,66.30
2018-11-21T23:48:41.314Z,66.80
2018-11-21T23:51:09.021Z,66.60
2018-11-21T23:53:36.926Z,67.40
2018-11-21T23:56:05.281Z,68.10
2018-11-21T23:58:33.266Z,66.10
